Overview Statistics Trail Chart Weather Telemetry Raw packets
 

This is the latest recevied weather packets stored in our database for station/object IU5GBO-13. If no packets are shown the sender has not sent any weather packets the latest 10 day(s).

<< 37 38 39 40 41 42 43 >>
Time Temp. Humidity Pressure Rain* Wind** Luminosity Snow
1777497972 14.44° C 60% 1017.1 hPa - - - -
1777497373 14.44° C 62% 1017.1 hPa - - - -
1777496772 14.44° C 62% 1017.1 hPa - - - -
1777496172 15° C 60% 1017.1 hPa - - - -
1777495572 15.56° C 59% 1016.9 hPa - - - -
1777494972 16.11° C 59% 1016.8 hPa - - - -
1777494372 15.56° C 59% 1016.7 hPa - - - -
1777493772 15.56° C 61% 1016.7 hPa - - - -
1777493173 15.56° C 61% 1016.7 hPa - - - -
1777492572 16.11° C 59% 1016.5 hPa - - - -
1777491972 17.22° C 57% 1016.3 hPa - - - -
1777491373 17.22° C 57% 1016.1 hPa - - - -
1777490773 17.22° C 57% 1016 hPa - - - -
1777490172 17.22° C 58% 1015.9 hPa - - - -
1777489572 17.22° C 59% 1015.8 hPa - - - -
1777488972 17.22° C 59% 1015.6 hPa - - - -
1777488372 17.78° C 57% 1015.6 hPa - - - -
1777487772 18.33° C 57% 1015.5 hPa - - - -
1777487173 18.33° C 55% 1015.6 hPa - - - -
1777486572 18.89° C 54% 1015.6 hPa - - - -
1777485972 18.89° C 52% 1015.6 hPa - - - -
1777485372 18.89° C 53% 1015.6 hPa - - - -
1777484773 19.44° C 51% 1015.6 hPa - - - -
1777484173 20° C 48% 1015.4 hPa - - - -
1777483572 20.56° C 44% 1015.4 hPa - - - -

* Rain since midnight (hover to see other rain measurements)
** Current wind speed in m/s (hover to see current wind gust speed)